LZIB/BTS METAR and TAF weather

Enter ICAO airport designator
Station Type Date Time Source
LZIB METAR 2022/01/26 08:30 UTC NOAA

LZIB 260830Z 29008KT 9999 FEW013 SCT016 BKN029 03/M01 Q1029 NOSIG


Station Type Date Time Source
LZIB Decoded METAR 2022/01/26 08:30 UTC NOAA

Bratislava Ivanka, Slovakia (LZIB) 48-12N 017-12E 142M
Jan 26, 2022 - 03:30 AM EST / 2022.01.26 0830 UTC
Wind: from the WNW (290 degrees) at 9 MPH (8 KT):0
Visibility: greater than 7 mile(s):0
Sky conditions: mostly cloudy
Temperature: 37 F (3 C)
Dew Point: 30 F (-1 C)
Relative Humidity: 74%
Pressure (altimeter): 30.39 in. Hg (1029 hPa)
ob: LZIB 260830Z 29008KT 9999 FEW013 SCT016 BKN029 03/M01 Q1029 NOSIG
cycle: 8

Station Type Date Time Source
LZIB TAF 2022/01/26 06:57 UTC NOAA

TAF LZIB 260500Z 2606/2706 29010KT 9999 FEW025 OVC035
BECMG 2702/2704 CAVOK

Example: see airport list